Time;durP1;ratioP1;P1;durP2;ratioP2;P2;SDS_P1;SDS_P2;PMS_P1;PMS_P2;Temp;Humidity;BMP_temperature;BMP_pressure;BME280_temperature;BME280_humidity;BME280_pressure;Samples;Min_cycle;Max_cycle;Signal;HPM_P1;HPM_P2
2022/04/07 00:00:09;;;;;;;;;;;;;;;17.89;61.92;97800.41;2091218;28;19928;-51
2022/04/07 00:01:13;;;;;;;;;;;;;;;17.89;61.86;97797.72;2088446;28;19964;-52
2022/04/07 00:02:14;;;;;;;;;;;;;;;17.87;61.86;97789.88;2089552;28;19951;-49
2022/04/07 00:03:15;;;;;;;;;;;;;;;17.86;62.05;97790.91;2087479;28;24548;-54
2022/04/07 00:04:16;;;;;;;;;;;;;;;17.84;61.77;97793.00;2084962;28;20011;-51
2022/04/07 00:05:19;;;;;;;;;;;;;;;17.84;61.78;97793.81;2085637;28;20329;-54
2022/04/07 00:06:20;;;;;;;;;;;;;;;17.84;62.10;97799.19;2087209;28;20410;-53
2022/04/07 00:07:21;;;;;;;;;;;;;;;17.84;61.96;97801.03;2087849;28;19926;-52
2022/04/07 00:08:22;;;;;;;;;;;;;;;17.84;62.17;97803.72;2086869;28;19986;-55
2022/04/07 00:09:23;;;;;;;;;;;;;;;17.84;62.10;97803.72;2088070;28;19920;-54
2022/04/07 00:10:24;;;;;;;;;;;;;;;17.83;61.87;97799.41;2087819;28;19927;-49
2022/04/07 00:11:25;;;;;;;;;;;;;;;17.82;62.09;97792.38;2087146;28;19930;-55
2022/04/07 00:12:26;;;;;;;;;;;;;;;17.83;62.00;97789.50;2088517;28;20251;-50
2022/04/07 00:13:27;;;;;;;;;;;;;;;17.81;62.01;97793.44;2080064;28;19935;-48
2022/04/07 00:14:28;;;;;;;;;;;;;;;17.79;62.65;97787.47;2082931;28;19932;-51
2022/04/07 00:15:30;;;;;;;;;;;;;;;17.78;62.13;97781.28;2086216;28;19958;-51
2022/04/07 00:16:30;;;;;;;;;;;;;;;17.77;62.03;97784.13;2087242;28;19946;-47
2022/04/07 00:17:32;;;;;;;;;;;;;;;17.76;61.96;97780.63;2087069;28;19936;-52
2022/04/07 00:18:33;;;;;;;;;;;;;;;17.76;62.32;97780.63;2086223;28;20413;-51
2022/04/07 00:19:34;;;;;;;;;;;;;;;17.76;62.53;97785.19;2086502;28;19927;-53
2022/04/07 00:20:36;;;;;;;;;;;;;;;17.75;62.52;97775.50;2087386;28;19960;-55
2022/04/07 00:21:40;;;;;;;;;;;;;;;17.74;62.39;97771.97;2088318;28;19967;-52
2022/04/07 00:22:41;;;;;;;;;;;;;;;17.76;62.16;97769.91;2088504;28;20431;-54
2022/04/07 00:23:42;;;;;;;;;;;;;;;17.72;62.22;97768.72;2087936;28;19928;-53
2022/04/07 00:24:43;;;;;;;;;;;;;;;17.73;62.14;97770.34;2081314;28;20526;-51
2022/04/07 00:25:44;;;;;;;;;;;;;;;17.73;62.05;97778.41;2086640;28;19924;-53
2022/04/07 00:26:45;;;;;;;;;;;;;;;17.74;62.02;97771.16;2087905;28;19920;-50
2022/04/07 00:27:47;;;;;;;;;;;;;;;17.73;62.04;97777.59;2087310;28;20695;-49
2022/04/07 00:28:47;;;;;;;;;;;;;;;17.72;62.23;97773.25;2088868;28;20015;-48
2022/04/07 00:29:49;;;;;;;;;;;;;;;17.69;62.25;97771.84;2088206;28;19924;-55
2022/04/07 00:30:49;;;;;;;;;;;;;;;17.72;62.06;97767.88;2085683;28;19925;-47
2022/04/07 00:31:56;;;;;;;;;;;;;;;17.71;62.17;97768.94;2089543;28;20006;-51
2022/04/07 00:32:56;;;;;;;;;;;;;;;17.70;62.32;97768.13;2087583;28;19981;-53
2022/04/07 00:33:58;;;;;;;;;;;;;;;17.71;62.47;97772.41;2085557;28;19982;-54
2022/04/07 00:34:59;;;;;;;;;;;;;;;17.68;62.60;97769.38;2088851;28;19928;-46
2022/04/07 00:36:04;;;;;;;;;;;;;;;17.69;62.42;97768.31;2089254;28;20442;-53
2022/04/07 00:37:05;;;;;;;;;;;;;;;17.71;62.22;97774.28;2089363;28;19920;-50
2022/04/07 00:38:06;;;;;;;;;;;;;;;17.72;62.19;97778.59;2088800;28;19928;-51
2022/04/07 00:39:08;;;;;;;;;;;;;;;17.68;62.78;97780.91;2089446;28;20005;-49
2022/04/07 00:40:09;;;;;;;;;;;;;;;17.69;62.43;97776.34;2089232;28;19935;-53
2022/04/07 00:41:11;;;;;;;;;;;;;;;17.69;62.10;97774.53;2086652;28;20023;-50
2022/04/07 00:42:11;;;;;;;;;;;;;;;17.69;62.34;97773.69;2086628;28;20082;-52
2022/04/07 00:43:27;;;;;;;;;;;;;;;17.68;62.46;97774.72;2088144;28;19948;-52
2022/04/07 00:44:29;;;;;;;;;;;;;;;17.67;62.71;97770.41;2088239;28;19964;-53
2022/04/07 00:45:29;;;;;;;;;;;;;;;17.68;62.40;97758.63;2088729;28;20298;-47
2022/04/07 00:46:31;;;;;;;;;;;;;;;17.68;62.45;97764.81;2090256;28;20015;-57
2022/04/07 00:47:32;;;;;;;;;;;;;;;17.65;62.64;97763.38;2089285;28;20023;-50
2022/04/07 00:48:35;;;;;;;;;;;;;;;17.64;62.39;97766.31;2088657;28;19935;-54
2022/04/07 00:49:36;;;;;;;;;;;;;;;17.64;62.47;97761.75;2087152;28;19924;-57
2022/04/07 00:50:37;;;;;;;;;;;;;;;17.65;62.62;97760.72;2091256;28;20533;-52
2022/04/07 00:51:40;;;;;;;;;;;;;;;17.64;63.02;97767.13;2087772;28;19969;-49
2022/04/07 00:52:42;;;;;;;;;;;;;;;17.63;63.23;97760.13;2090758;28;19924;-56
2022/04/07 00:53:45;;;;;;;;;;;;;;;17.67;63.26;97760.50;2088123;28;19978;-53
2022/04/07 00:54:47;;;;;;;;;;;;;;;17.68;63.14;97755.97;2091291;28;19979;-48
2022/04/07 00:55:48;;;;;;;;;;;;;;;17.68;63.10;97756.78;2088977;28;20428;-52
2022/04/07 00:56:50;;;;;;;;;;;;;;;17.69;62.86;97754.91;2091438;28;19982;-49
2022/04/07 00:57:51;;;;;;;;;;;;;;;17.71;62.93;97763.56;2090539;28;19928;-50
2022/04/07 00:58:53;;;;;;;;;;;;;;;17.71;62.92;97758.19;2091856;28;19924;-49
2022/04/07 00:59:54;;;;;;;;;;;;;;;17.72;63.08;97754.47;2091442;28;19995;-49
2022/04/07 01:00:56;;;;;;;;;;;;;;;17.73;63.18;97758.81;2092894;28;19928;-48
2022/04/07 01:01:56;;;;;;;;;;;;;;;17.72;63.17;97757.16;2088444;28;20015;-50
2022/04/07 01:02:58;;;;;;;;;;;;;;;17.72;63.41;97758.00;2091608;28;19920;-50
2022/04/07 01:03:59;;;;;;;;;;;;;;;17.71;63.42;97752.84;2090355;28;20003;-56
2022/04/07 01:05:00;;;;;;;;;;;;;;;17.74;63.14;97760.44;2089927;28;20374;-50
2022/04/07 01:06:01;;;;;;;;;;;;;;;17.75;63.22;97759.41;2090059;28;20772;-49
2022/04/07 01:07:07;;;;;;;;;;;;;;;17.74;63.47;97757.75;2091151;28;19924;-50
2022/04/07 01:08:08;;;;;;;;;;;;;;;17.73;63.50;97753.44;2087520;28;20674;-53
2022/04/07 01:09:10;;;;;;;;;;;;;;;17.72;63.62;97755.31;2091332;28;19921;-57
2022/04/07 01:10:10;;;;;;;;;;;;;;;17.73;63.51;97753.44;2087792;28;20975;-48
2022/04/07 01:11:12;;;;;;;;;;;;;;;17.73;63.39;97753.44;2092614;28;19939;-52
2022/04/07 01:12:12;;;;;;;;;;;;;;;17.73;63.45;97754.25;2085645;28;19928;-51
2022/04/07 01:13:15;;;;;;;;;;;;;;;17.73;63.55;97748.09;2088005;28;19934;-51
2022/04/07 01:14:16;;;;;;;;;;;;;;;17.73;63.73;97756.94;2088374;28;19935;-54
2022/04/07 01:15:17;;;;;;;;;;;;;;;17.73;63.47;97753.44;2088341;28;20009;-51
2022/04/07 01:16:18;;;;;;;;;;;;;;;17.73;63.47;97753.44;2089667;28;19921;-56
2022/04/07 01:17:20;;;;;;;;;;;;;;;17.72;63.71;97757.16;2088913;28;20584;-49
2022/04/07 01:18:21;;;;;;;;;;;;;;;17.72;63.38;97758.00;2089523;28;20386;-50
2022/04/07 01:19:22;;;;;;;;;;;;;;;17.73;63.84;97759.63;2088074;28;19927;-52
2022/04/07 01:20:23;;;;;;;;;;;;;;;17.74;64.03;97757.75;2091319;28;20019;-51
2022/04/07 01:21:25;;;;;;;;;;;;;;;17.73;64.13;97759.63;2090444;28;19927;-47
2022/04/07 01:22:27;;;;;;;;;;;;;;;17.74;64.28;97755.06;2087770;28;20390;-52
2022/04/07 01:23:33;;;;;;;;;;;;;;;17.74;63.85;97755.06;2085444;28;20011;-58
2022/04/07 01:24:35;;;;;;;;;;;;;;;17.72;63.95;97754.47;2089784;28;19981;-48
2022/04/07 01:25:38;;;;;;;;;;;;;;;17.74;63.73;97755.06;2089295;28;20426;-51
2022/04/07 01:26:39;;;;;;;;;;;;;;;17.74;63.90;97755.06;2087945;28;19979;-49
2022/04/07 01:27:41;;;;;;;;;;;;;;;17.75;64.11;97759.41;2087626;28;19927;-55
2022/04/07 01:28:46;;;;;;;;;;;;;;;17.74;63.92;97760.44;2088826;28;21146;-51
2022/04/07 01:29:47;;;;;;;;;;;;;;;17.72;64.05;97763.34;2090080;28;19929;-47
2022/04/07 01:30:48;;;;;;;;;;;;;;;17.70;63.84;97749.34;2089138;28;19931;-46
2022/04/07 01:31:49;;;;;;;;;;;;;;;17.70;63.72;97762.75;2087114;28;19920;-55
2022/04/07 01:32:52;;;;;;;;;;;;;;;17.71;63.99;97760.88;2085562;28;19928;-49
2022/04/07 01:33:54;;;;;;;;;;;;;;;17.71;64.27;97761.69;2088152;28;19927;-50
2022/04/07 01:34:54;;;;;;;;;;;;;;;17.71;63.96;97761.69;2089524;28;19928;-47
2022/04/07 01:35:56;;;;;;;;;;;;;;;17.71;63.74;97756.34;2089601;28;19920;-55
2022/04/07 01:36:56;;;;;;;;;;;;;;;17.71;63.99;97760.88;2088822;28;20558;-54
2022/04/07 01:38:00;;;;;;;;;;;;;;;17.71;63.80;97756.34;2089253;28;19931;-56
2022/04/07 01:39:01;;;;;;;;;;;;;;;17.71;63.79;97761.69;2086038;28;19924;-55
2022/04/07 01:40:06;;;;;;;;;;;;;;;17.71;63.77;97761.69;2087989;28;20583;-57
2022/04/07 01:41:07;;;;;;;;;;;;;;;17.69;63.89;97752.22;2091212;28;19925;-52
2022/04/07 01:42:09;;;;;;;;;;;;;;;17.69;63.69;97760.28;2087449;28;19998;-52
2022/04/07 01:43:11;;;;;;;;;;;;;;;17.71;63.80;97760.88;2092559;28;19982;-55
2022/04/07 01:44:13;;;;;;;;;;;;;;;17.69;64.04;97761.13;2088593;28;19978;-46
2022/04/07 01:45:14;;;;;;;;;;;;;;;17.69;63.77;97763.78;2089889;28;19940;-54
2022/04/07 01:46:15;;;;;;;;;;;;;;;17.69;64.00;97757.59;2089110;28;20043;-50
2022/04/07 01:47:19;;;;;;;;;;;;;;;17.69;63.90;97766.47;2091152;28;20019;-55
2022/04/07 01:48:20;;;;;;;;;;;;;;;17.68;63.74;97756.78;2089071;28;20358;-48
2022/04/07 01:49:22;;;;;;;;;;;;;;;17.68;64.16;97751.41;2086982;28;20019;-57
2022/04/07 01:50:24;;;;;;;;;;;;;;;17.70;64.02;97753.88;2089019;28;20295;-51
2022/04/07 01:51:26;;;;;;;;;;;;;;;17.65;64.39;97758.03;2087282;28;20632;-52
2022/04/07 01:52:27;;;;;;;;;;;;;;;17.68;64.30;97753.28;2088693;28;20405;-54
2022/04/07 01:53:28;;;;;;;;;;;;;;;17.67;64.02;97754.31;2089101;28;19970;-50
2022/04/07 01:54:29;;;;;;;;;;;;;;;17.67;64.17;97749.78;2090569;28;19927;-51
2022/04/07 01:55:32;;;;;;;;;;;;;;;17.68;64.05;97750.59;2090731;28;19920;-53
2022/04/07 01:56:33;;;;;;;;;;;;;;;17.67;63.87;97754.31;2089170;28;19920;-56
2022/04/07 01:57:35;;;;;;;;;;;;;;;17.65;63.72;97747.31;2089241;28;20317;-54
2022/04/07 01:58:36;;;;;;;;;;;;;;;17.65;63.97;97749.16;2091718;28;20391;-52
2022/04/07 01:59:38;;;;;;;;;;;;;;;17.62;63.85;97747.75;2090039;28;19924;-49
2022/04/07 02:00:39;;;;;;;;;;;;;;;17.62;64.01;97750.44;2090694;28;19921;-53
2022/04/07 02:01:40;;;;;;;;;;;;;;;17.62;64.23;97745.06;2088514;28;20507;-53
2022/04/07 02:02:41;;;;;;;;;;;;;;;17.63;63.95;97743.19;2089651;28;19928;-52
2022/04/07 02:03:45;;;;;;;;;;;;;;;17.62;64.24;97747.75;2087698;28;20366;-49
2022/04/07 02:04:56;;;;;;;;;;;;;;;17.65;63.77;97746.50;2090203;28;19920;-51
2022/04/07 02:06:08;;;;;;;;;;;;;;;17.64;63.86;97750.22;2086825;28;20578;-54
2022/04/07 02:07:10;;;;;;;;;;;;;;;17.62;63.87;97747.75;2091540;28;19927;-56
2022/04/07 02:08:10;;;;;;;;;;;;;;;17.61;63.95;97750.66;2090352;28;19924;-51
2022/04/07 02:09:12;;;;;;;;;;;;;;;17.61;63.94;97747.97;2090589;28;20007;-54
2022/04/07 02:10:13;;;;;;;;;;;;;;;17.59;64.11;97745.50;2089961;28;19924;-54
2022/04/07 02:11:16;;;;;;;;;;;;;;;17.59;64.12;97745.50;2087639;28;19926;-53
2022/04/07 02:12:20;;;;;;;;;;;;;;;17.59;64.12;97739.31;2088253;28;19924;-47
2022/04/07 02:13:21;;;;;;;;;;;;;;;17.58;63.91;97741.19;2089750;28;19929;-53
2022/04/07 02:14:22;;;;;;;;;;;;;;;17.58;63.71;97737.69;2087807;28;19955;-51
2022/04/07 02:15:25;;;;;;;;;;;;;;;17.58;63.90;97735.00;2089571;28;20093;-56
2022/04/07 02:16:27;;;;;;;;;;;;;;;17.56;63.95;97737.91;2086464;28;19928;-48
2022/04/07 02:17:29;;;;;;;;;;;;;;;17.58;63.69;97735.81;2089695;28;19931;-50
2022/04/07 02:18:29;;;;;;;;;;;;;;;17.58;63.87;97730.47;2085745;28;19960;-50
2022/04/07 02:19:31;;;;;;;;;;;;;;;17.58;63.69;97735.81;2085015;28;19920;-52
2022/04/07 02:20:32;;;;;;;;;;;;;;;17.57;63.65;97733.34;2088983;28;20039;-50
2022/04/07 02:21:34;;;;;;;;;;;;;;;17.57;63.46;97736.84;2086980;28;19925;-51
2022/04/07 02:22:34;;;;;;;;;;;;;;;17.55;63.63;97735.41;2091015;28;19959;-53
2022/04/07 02:23:42;;;;;;;;;;;;;;;17.56;63.62;97732.53;2087328;28;19932;-52
2022/04/07 02:24:42;;;;;;;;;;;;;;;17.56;63.41;97731.72;2088812;28;19950;-50
2022/04/07 02:25:44;;;;;;;;;;;;;;;17.54;63.41;97729.25;2089070;28;20794;-54
2022/04/07 02:26:46;;;;;;;;;;;;;;;17.55;63.75;97735.41;2086230;28;19931;-48
2022/04/07 02:27:47;;;;;;;;;;;;;;;17.55;63.47;97730.06;2085358;28;19928;-49
2022/04/07 02:28:48;;;;;;;;;;;;;;;17.54;63.70;97734.59;2085801;28;19924;-51
2022/04/07 02:29:49;;;;;;;;;;;;;;;17.51;63.65;97729.69;2085707;28;19925;-51
2022/04/07 02:30:50;;;;;;;;;;;;;;;17.53;63.64;97732.16;2087296;28;19921;-50
2022/04/07 02:31:51;;;;;;;;;;;;;;;17.54;63.67;97723.88;2088132;28;21033;-48
2022/04/07 02:32:52;;;;;;;;;;;;;;;17.55;63.42;97724.69;2088426;28;19940;-51
2022/04/07 02:33:53;;;;;;;;;;;;;;;17.55;63.46;97724.69;2088898;28;19928;-50
2022/04/07 02:34:54;;;;;;;;;;;;;;;17.56;63.33;97727.16;2087998;28;19924;-49
2022/04/07 02:35:55;;;;;;;;;;;;;;;17.57;63.43;97723.44;2084849;28;20375;-47
2022/04/07 02:36:56;;;;;;;;;;;;;;;17.56;63.30;97719.13;2087906;28;20435;-51
2022/04/07 02:37:59;;;;;;;;;;;;;;;17.55;63.27;97727.38;2088757;28;19928;-51
2022/04/07 02:39:00;;;;;;;;;;;;;;;17.55;63.17;97730.06;2087399;28;19927;-52
2022/04/07 02:40:01;;;;;;;;;;;;;;;17.52;63.21;97719.78;2089699;28;20341;-51
2022/04/07 02:41:02;;;;;;;;;;;;;;;17.52;63.28;97720.59;2086943;28;19921;-51
2022/04/07 02:42:05;;;;;;;;;;;;;;;17.53;63.32;97719.56;2087521;28;19925;-47
2022/04/07 02:43:07;;;;;;;;;;;;;;;17.54;63.14;97717.69;2088872;28;19928;-50
2022/04/07 02:44:07;;;;;;;;;;;;;;;17.56;62.89;97721.00;2085469;28;19924;-49
2022/04/07 02:45:09;;;;;;;;;;;;;;;17.55;62.98;97725.53;2086617;28;19921;-51
2022/04/07 02:46:10;;;;;;;;;;;;;;;17.53;62.96;97722.25;2086570;28;20298;-53
2022/04/07 02:47:12;;;;;;;;;;;;;;;17.53;63.10;97724.13;2087337;28;19924;-51
2022/04/07 02:48:13;;;;;;;;;;;;;;;17.52;63.21;97734.00;2090098;28;20498;-50
2022/04/07 02:49:14;;;;;;;;;;;;;;;17.51;62.97;97729.69;2087439;28;19924;-50
2022/04/07 02:50:16;;;;;;;;;;;;;;;17.49;63.26;97723.72;2088147;28;20023;-48
2022/04/07 02:51:17;;;;;;;;;;;;;;;17.48;63.23;97724.75;2091126;28;19924;-51
2022/04/07 02:52:19;;;;;;;;;;;;;;;17.49;63.03;97726.38;2083595;28;20294;-50
2022/04/07 02:53:20;;;;;;;;;;;;;;;17.50;62.88;97729.91;2088509;28;19950;-50
2022/04/07 02:54:21;;;;;;;;;;;;;;;17.50;62.83;97724.56;2087343;28;20378;-49
2022/04/07 02:55:24;;;;;;;;;;;;;;;17.46;63.05;97726.81;2087722;28;19920;-51
2022/04/07 02:56:24;;;;;;;;;;;;;;;17.46;63.02;97718.78;2085958;28;19932;-48
2022/04/07 02:57:30;;;;;;;;;;;;;;;17.48;63.17;97730.13;2088336;28;19921;-51
2022/04/07 02:58:31;;;;;;;;;;;;;;;17.50;62.86;97717.31;2086149;28;20046;-50
2022/04/07 02:59:33;;;;;;;;;;;;;;;17.48;62.92;97719.41;2089836;28;19928;-51
2022/04/07 03:00:33;;;;;;;;;;;;;;;17.47;62.99;97717.78;2087510;28;20800;-47
2022/04/07 03:01:35;;;;;;;;;;;;;;;17.49;62.65;97714.84;2088503;28;19939;-48
2022/04/07 03:02:35;;;;;;;;;;;;;;;17.46;62.87;97715.28;2090388;28;20518;-47
2022/04/07 03:03:37;;;;;;;;;;;;;;;17.45;62.90;97716.34;2086113;28;19921;-52
2022/04/07 03:04:37;;;;;;;;;;;;;;;17.47;62.88;97711.56;2086408;28;19974;-52
2022/04/07 03:05:39;;;;;;;;;;;;;;;17.45;62.83;97709.13;2086990;28;20601;-48
2022/04/07 03:06:39;;;;;;;;;;;;;;;17.47;62.73;97706.19;2087461;28;20007;-50
2022/04/07 03:07:41;;;;;;;;;;;;;;;17.45;62.94;97706.44;2089163;28;19927;-50
2022/04/07 03:08:42;;;;;;;;;;;;;;;17.43;62.72;97709.31;2089721;28;19935;-54
2022/04/07 03:09:43;;;;;;;;;;;;;;;17.45;62.87;97703.75;2087955;28;20873;-48
2022/04/07 03:10:44;;;;;;;;;;;;;;;17.48;62.60;97702.50;2086789;28;20374;-52
2022/04/07 03:11:46;;;;;;;;;;;;;;;17.45;62.70;97701.06;2091043;28;19924;-48
2022/04/07 03:12:49;;;;;;;;;;;;;;;17.45;62.66;97706.44;2086736;28;19921;-52
2022/04/07 03:13:49;;;;;;;;;;;;;;;17.44;62.78;97707.47;2088154;28;19928;-54
2022/04/07 03:14:51;;;;;;;;;;;;;;;17.41;62.90;97707.88;2088839;28;19921;-55
2022/04/07 03:15:51;;;;;;;;;;;;;;;17.39;62.89;97704.63;2086929;28;19928;-47
2022/04/07 03:16:53;;;;;;;;;;;;;;;17.38;62.91;97708.34;2085747;28;19921;-52
2022/04/07 03:17:53;;;;;;;;;;;;;;;17.38;63.14;97719.06;2089130;28;19920;-50
2022/04/07 03:18:55;;;;;;;;;;;;;;;17.37;63.00;97718.25;2086985;28;19931;-51
2022/04/07 03:19:56;;;;;;;;;;;;;;;17.38;63.00;97719.06;2090077;28;19980;-51
2022/04/07 03:20:57;;;;;;;;;;;;;;;17.38;63.14;97725.25;2088525;28;19934;-50
2022/04/07 03:21:58;;;;;;;;;;;;;;;17.38;63.28;97719.91;2086861;28;19931;-47
2022/04/07 03:23:00;;;;;;;;;;;;;;;17.40;63.20;97719.66;2085496;28;19920;-51
2022/04/07 03:24:00;;;;;;;;;;;;;;;17.41;63.17;97724.81;2086866;28;19925;-47
2022/04/07 03:25:02;;;;;;;;;;;;;;;17.43;63.26;97724.59;2088657;28;19924;-52
2022/04/07 03:26:02;;;;;;;;;;;;;;;17.45;63.28;97725.19;2085321;28;20003;-47
2022/04/07 03:27:05;;;;;;;;;;;;;;;17.46;63.16;97724.16;2085310;28;20373;-48
2022/04/07 03:28:08;;;;;;;;;;;;;;;17.46;63.27;97721.47;2087313;28;19921;-48
2022/04/07 03:29:09;;;;;;;;;;;;;;;17.49;63.03;97722.91;2084628;28;20376;-49
2022/04/07 03:30:10;;;;;;;;;;;;;;;17.49;63.17;97726.38;2085618;28;20039;-51
2022/04/07 03:31:12;;;;;;;;;;;;;;;17.50;63.50;97720.00;2087128;28;19927;-52
2022/04/07 03:32:12;;;;;;;;;;;;;;;17.50;63.44;97720.00;2087182;28;19920;-51
2022/04/07 03:33:14;;;;;;;;;;;;;;;17.51;63.58;97726.19;2086395;28;19931;-50
2022/04/07 03:34:14;;;;;;;;;;;;;;;17.51;63.39;97731.56;2085726;28;19931;-53
2022/04/07 03:35:16;;;;;;;;;;;;;;;17.51;63.31;97723.50;2082244;28;19929;-47
2022/04/07 03:36:17;;;;;;;;;;;;;;;17.53;63.33;97722.25;2083991;28;19924;-48
2022/04/07 03:37:20;;;;;;;;;;;;;;;17.52;63.70;97723.28;2084273;28;20333;-48
2022/04/07 03:38:21;;;;;;;;;;;;;;;17.51;63.65;97728.88;2085976;28;19956;-49
2022/04/07 03:39:22;;;;;;;;;;;;;;;17.49;63.52;97726.38;2084931;28;19921;-48
2022/04/07 03:40:24;;;;;;;;;;;;;;;17.51;63.75;97731.56;2087200;28;19924;-51
2022/04/07 03:41:28;;;;;;;;;;;;;;;17.50;63.61;97736.09;2085167;28;20039;-49
2022/04/07 03:42:28;;;;;;;;;;;;;;;17.50;63.75;97737.97;2086824;28;19966;-50
2022/04/07 03:43:31;;;;;;;;;;;;;;;17.49;63.46;97726.38;2085831;28;20306;-52
2022/04/07 03:44:32;;;;;;;;;;;;;;;17.50;63.63;97729.91;2088406;28;19935;-53
2022/04/07 03:45:33;;;;;;;;;;;;;;;17.49;63.74;97730.94;2086536;28;20390;-52
2022/04/07 03:46:35;;;;;;;;;;;;;;;17.49;63.37;97742.47;2086985;28;19925;-50
2022/04/07 03:47:35;;;;;;;;;;;;;;;17.50;63.44;97744.13;2087522;28;19932;-50
2022/04/07 03:48:37;;;;;;;;;;;;;;;17.51;63.18;97737.72;2088585;28;20313;-51
2022/04/07 03:49:39;;;;;;;;;;;;;;;17.50;63.23;97746.81;2084738;28;20042;-54
2022/04/07 03:50:40;;;;;;;;;;;;;;;17.48;63.00;97743.53;2085430;28;19925;-52
2022/04/07 03:51:42;;;;;;;;;;;;;;;17.48;63.03;97735.47;2089701;28;20016;-51
2022/04/07 03:52:42;;;;;;;;;;;;;;;17.49;63.08;97742.47;2088489;28;19921;-50
2022/04/07 03:53:44;;;;;;;;;;;;;;;17.49;62.98;97742.47;2091053;28;19927;-49
2022/04/07 03:54:45;;;;;;;;;;;;;;;17.49;63.03;97737.13;2090620;28;19924;-53
2022/04/07 03:55:46;;;;;;;;;;;;;;;17.48;63.25;97732.81;2090089;28;19920;-50
2022/04/07 03:56:47;;;;;;;;;;;;;;;17.49;63.28;97737.13;2087572;28;20549;-53
2022/04/07 03:57:48;;;;;;;;;;;;;;;17.49;63.39;97742.47;2091200;28;19924;-48
2022/04/07 03:58:50;;;;;;;;;;;;;;;17.50;63.28;97737.97;2090746;28;19924;-53
2022/04/07 03:59:52;;;;;;;;;;;;;;;17.51;63.16;97742.28;2088610;28;19925;-51
2022/04/07 04:00:53;;;;;;;;;;;;;;;17.49;63.24;97744.34;2088114;28;19924;-50
2022/04/07 04:01:55;;;;;;;;;;;;;;;17.50;63.35;97751.38;2087796;28;20383;-49
2022/04/07 04:02:56;;;;;;;;;;;;;;;17.50;63.25;97748.69;2089974;28;20388;-49
2022/04/07 04:03:57;;;;;;;;;;;;;;;17.50;63.17;97746.00;2089816;28;19970;-49
2022/04/07 04:04:58;;;;;;;;;;;;;;;17.49;63.21;97752.38;2087208;28;19974;-51
2022/04/07 04:06:00;;;;;;;;;;;;;;;17.48;63.15;97751.56;2092134;28;19925;-48
2022/04/07 04:07:00;;;;;;;;;;;;;;;17.47;63.14;97744.56;2086106;28;20005;-51
2022/04/07 04:08:02;;;;;;;;;;;;;;;17.47;63.21;97749.94;2089390;28;19981;-50
2022/04/07 04:09:03;;;;;;;;;;;;;;;17.49;63.47;97752.38;2089175;28;19993;-50
2022/04/07 04:10:05;;;;;;;;;;;;;;;17.47;63.46;97752.63;2088834;28;19970;-52
2022/04/07 04:11:05;;;;;;;;;;;;;;;17.49;63.18;97757.75;2088299;28;20011;-51
2022/04/07 04:12:07;;;;;;;;;;;;;;;17.47;63.32;97757.13;2087837;28;19932;-53
2022/04/07 04:13:09;;;;;;;;;;;;;;;17.47;63.29;97749.09;2087362;28;20690;-52
2022/04/07 04:14:11;;;;;;;;;;;;;;;17.46;63.53;97750.97;2084591;28;19932;-51
2022/04/07 04:15:13;;;;;;;;;;;;;;;17.45;63.25;97749.31;2087534;28;20593;-51
2022/04/07 04:16:15;;;;;;;;;;;;;;;17.45;63.42;97741.28;2088086;28;19975;-53
2022/04/07 04:17:16;;;;;;;;;;;;;;;17.45;63.58;97746.66;2089341;28;19928;-47
2022/04/07 04:18:17;;;;;;;;;;;;;;;17.46;63.44;97750.97;2090059;28;19925;-52
2022/04/07 04:19:18;;;;;;;;;;;;;;;17.44;63.37;97742.34;2088698;28;20366;-49
2022/04/07 04:20:19;;;;;;;;;;;;;;;17.45;63.31;97745.81;2087601;28;20259;-51
2022/04/07 04:21:20;;;;;;;;;;;;;;;17.45;63.36;97741.28;2089994;28;19931;-47
2022/04/07 04:22:21;;;;;;;;;;;;;;;17.43;63.60;97746.03;2089456;28;19921;-50
2022/04/07 04:23:22;;;;;;;;;;;;;;;17.42;63.60;97749.75;2090546;28;19974;-48
2022/04/07 04:24:24;;;;;;;;;;;;;;;17.41;63.63;97746.28;2088498;28;19920;-50
2022/04/07 04:25:24;;;;;;;;;;;;;;;17.40;63.64;97747.28;2091832;28;19921;-50
2022/04/07 04:26:26;;;;;;;;;;;;;;;17.39;63.65;97751.03;2091491;28;19924;-49
2022/04/07 04:27:27;;;;;;;;;;;;;;;17.41;63.72;97753.47;2092224;28;20389;-49
2022/04/07 04:28:28;;;;;;;;;;;;;;;17.40;63.65;97760.69;2092425;28;20034;-53
2022/04/07 04:29:30;;;;;;;;;;;;;;;17.42;63.53;97755.13;2092505;28;20450;-52
2022/04/07 04:30:32;;;;;;;;;;;;;;;17.40;63.54;97757.19;2087971;28;19921;-52
2022/04/07 04:31:32;;;;;;;;;;;;;;;17.40;63.60;97754.50;2092399;28;20492;-52
2022/04/07 04:32:34;;;;;;;;;;;;;;;17.42;63.53;97749.75;2090822;28;19920;-52
2022/04/07 04:33:34;;;;;;;;;;;;;;;17.40;63.36;97749.97;2090786;28;19924;-47
2022/04/07 04:34:36;;;;;;;;;;;;;;;17.40;63.38;97751.84;2091242;28;19920;-49
2022/04/07 04:35:36;;;;;;;;;;;;;;;17.39;63.52;97752.88;2091594;28;19981;-50
2022/04/07 04:36:38;;;;;;;;;;;;;;;17.39;63.36;97748.34;2090477;28;19946;-50
2022/04/07 04:37:39;;;;;;;;;;;;;;;17.39;63.37;97752.88;2088785;28;19920;-56
2022/04/07 04:38:40;;;;;;;;;;;;;;;17.38;63.22;97749.38;2089828;28;19926;-56
2022/04/07 04:39:41;;;;;;;;;;;;;;;17.39;63.35;97751.03;2091049;28;20699;-49
2022/04/07 04:40:43;;;;;;;;;;;;;;;17.37;63.10;97758.44;2089749;28;19950;-55
2022/04/07 04:41:43;;;;;;;;;;;;;;;17.38;63.29;97757.44;2090498;28;19928;-51
2022/04/07 04:42:45;;;;;;;;;;;;;;;17.37;63.06;97760.31;2092430;28;20554;-54
2022/04/07 04:43:45;;;;;;;;;;;;;;;17.36;63.22;97764.84;2092004;28;19973;-51
2022/04/07 04:44:49;;;;;;;;;;;;;;;17.37;63.08;97761.13;2089935;28;20719;-54
2022/04/07 04:45:49;;;;;;;;;;;;;;;17.38;63.04;97770.81;2086590;28;20531;-50
2022/04/07 04:46:51;;;;;;;;;;;;;;;17.37;63.11;97771.03;2092414;28;19931;-52
2022/04/07 04:47:52;;;;;;;;;;;;;;;17.34;63.38;97774.16;2091707;28;19928;-50
2022/04/07 04:48:54;;;;;;;;;;;;;;;17.35;63.15;97770.41;2092317;28;19930;-49
2022/04/07 04:49:55;;;;;;;;;;;;;;;17.37;62.90;97763.00;2092518;28;20362;-51
2022/04/07 04:50:57;;;;;;;;;;;;;;;17.36;62.97;97767.53;2088112;28;19929;-53
2022/04/07 04:51:58;;;;;;;;;;;;;;;17.35;62.99;97767.75;2091961;28;19927;-50
2022/04/07 04:52:59;;;;;;;;;;;;;;;17.34;63.04;97768.78;2092087;28;19920;-57
2022/04/07 04:54:00;;;;;;;;;;;;;;;17.33;62.94;97775.19;2091266;28;19963;-51
2022/04/07 04:55:01;;;;;;;;;;;;;;;17.35;63.07;97773.09;2088483;28;20296;-55
2022/04/07 04:56:02;;;;;;;;;;;;;;;17.34;62.70;97769.59;2089022;28;19921;-49
2022/04/07 04:57:04;;;;;;;;;;;;;;;17.33;62.90;97770.66;2085031;28;19936;-52
2022/04/07 04:58:04;;;;;;;;;;;;;;;17.32;63.00;97776.22;2086205;28;21812;-49
2022/04/07 04:59:06;;;;;;;;;;;;;;;17.32;63.01;97781.56;2086044;28;19934;-54
2022/04/07 05:00:09;;;;;;;;;;;;;;;17.31;62.95;97772.72;2087779;28;20300;-50
2022/04/07 05:01:10;;;;;;;;;;;;;;;17.33;62.83;97777.88;2088003;28;20370;-51
2022/04/07 05:02:11;;;;;;;;;;;;;;;17.34;62.93;97776.81;2091008;28;19947;-54
2022/04/07 05:03:12;;;;;;;;;;;;;;;17.34;62.92;97776.81;2086316;28;19935;-53
2022/04/07 05:04:13;;;;;;;;;;;;;;;17.31;63.00;97771.91;2088292;28;20390;-50
2022/04/07 05:05:14;;;;;;;;;;;;;;;17.32;62.83;97773.53;2088851;28;19939;-52
2022/04/07 05:06:15;;;;;;;;;;;;;;;17.31;63.00;97778.06;2090094;28;19921;-51
2022/04/07 05:07:16;;;;;;;;;;;;;;;17.38;62.74;97783.38;2087134;28;19929;-53
2022/04/07 05:08:18;;;;;;;;;;;;;;;17.41;62.81;97793.66;2087393;28;19929;-48
2022/04/07 05:09:19;;;;;;;;;;;;;;;17.39;62.77;97785.88;2089138;28;19931;-52
2022/04/07 05:10:20;;;;;;;;;;;;;;;17.39;62.88;97793.09;2090230;28;20479;-51
2022/04/07 05:11:21;;;;;;;;;;;;;;;17.36;63.05;97794.34;2086842;28;19998;-48
2022/04/07 05:12:22;;;;;;;;;;;;;;;17.35;63.17;97795.34;2085970;28;20313;-54
2022/04/07 05:13:23;;;;;;;;;;;;;;;17.35;63.33;97797.22;2088039;28;19920;-52
2022/04/07 05:14:24;;;;;;;;;;;;;;;17.31;63.40;97790.66;2087449;28;20665;-54
2022/04/07 05:15:27;;;;;;;;;;;;;;;17.33;63.33;97799.31;2089041;28;19931;-53
2022/04/07 05:16:27;;;;;;;;;;;;;;;17.31;63.36;97790.66;2086095;28;20016;-46
2022/04/07 05:17:29;;;;;;;;;;;;;;;17.31;63.40;97794.16;2089736;28;20412;-55
2022/04/07 05:18:29;;;;;;;;;;;;;;;17.31;63.29;97793.34;2088085;28;19955;-50
2022/04/07 05:19:31;;;;;;;;;;;;;;;17.30;63.41;97797.03;2086389;28;19927;-48
2022/04/07 05:20:33;;;;;;;;;;;;;;;17.30;63.38;97799.72;2086676;28;19939;-53